Time;durP1;ratioP1;P1;durP2;ratioP2;P2;SDS_P1;SDS_P2;PMS_P1;PMS_P2;Temp;Humidity;BMP_temperature;BMP_pressure;BME280_temperature;BME280_humidity;BME280_pressure;Samples;Min_cycle;Max_cycle;Signal;HPM_P1;HPM_P2
2022/01/31 00:00:17;;;;;;;;;9.50;6.00;;;;;8.97;59.49;102070.03;5003451;28;45483;-58
2022/01/31 00:02:44;;;;;;;;;7.00;4.75;;;;;8.91;58.70;102044.81;5007394;28;46518;-58
2022/01/31 00:05:10;;;;;;;;;3.25;3.25;;;;;8.94;58.70;102038.63;5003283;28;45504;-58
2022/01/31 00:07:36;;;;;;;;;8.50;7.00;;;;;8.91;58.78;102039.56;5016450;28;45408;-58
2022/01/31 00:10:07;;;;;;;;;6.75;6.00;;;;;8.93;58.72;102018.50;5003094;28;45372;-58
2022/01/31 00:12:39;;;;;;;;;7.25;6.00;;;;;8.95;58.68;102001.75;5013567;28;46160;-58
2022/01/31 00:15:05;;;;;;;;;10.75;7.75;;;;;8.98;58.42;102005.19;5009307;28;45254;-58
2022/01/31 00:17:30;;;;;;;;;7.00;7.00;;;;;8.99;58.84;102001.66;5013802;28;45515;-58
2022/01/31 00:19:56;;;;;;;;;18.75;6.50;;;;;9.01;58.86;101989.34;5016148;28;45403;-57
2022/01/31 00:22:21;;;;;;;;;7.75;4.50;;;;;8.99;58.83;101994.63;5011968;28;45708;-58
2022/01/31 00:24:47;;;;;;;;;10.00;4.25;;;;;8.97;58.88;101990.34;5008938;28;45317;-57
2022/01/31 00:27:12;;;;;;;;;8.75;5.25;;;;;8.91;58.95;101991.38;5013120;28;45349;-58
2022/01/31 00:29:38;;;;;;;;;9.25;6.25;;;;;8.86;59.17;101988.94;5016207;28;45372;-57
2022/01/31 00:32:04;;;;;;;;;11.50;6.00;;;;;8.81;59.49;101980.31;5008870;28;46267;-57
2022/01/31 00:34:31;;;;;;;;;7.25;3.75;;;;;8.78;59.45;101975.19;5015553;28;45610;-58
2022/01/31 00:36:56;;;;;;;;;6.00;5.00;;;;;8.76;59.54;101969.09;5012853;28;45241;-58
2022/01/31 00:39:22;;;;;;;;;6.50;6.00;;;;;8.78;59.99;101992.72;5007908;28;45418;-57
2022/01/31 00:41:47;;;;;;;;;8.00;6.00;;;;;8.82;59.81;101976.78;5012087;28;45548;-57
2022/01/31 00:44:26;;;;;;;;;6.00;3.00;;;;;8.83;59.47;101989.00;5008113;28;45321;-58
2022/01/31 00:46:58;;;;;;;;;6.00;6.00;;;;;8.86;59.66;101986.31;5010576;28;45349;-57
2022/01/31 00:51:59;;;;;;;;;7.00;6.00;;;;;8.87;59.53;101985.38;5001940;28;46160;-58
2022/01/31 00:54:24;;;;;;;;;5.75;5.75;;;;;8.89;59.73;101982.72;5013312;28;45361;-57
2022/01/31 00:56:51;;;;;;;;;8.00;6.00;;;;;8.86;59.86;101986.31;5007821;28;45391;-58
2022/01/31 00:59:17;;;;;;;;;7.50;4.25;;;;;8.87;59.81;101990.66;5021820;28;45372;-57
2022/01/31 01:01:42;;;;;;;;;8.00;4.75;;;;;8.87;60.15;101953.00;5021687;28;45336;-58
2022/01/31 01:04:08;;;;;;;;;3.75;3.25;;;;;8.84;60.10;101932.06;5013975;28;45470;-57
2022/01/31 01:06:33;;;;;;;;;5.00;3.00;;;;;8.82;59.75;101937.38;5009996;28;45583;-57
2022/01/31 01:08:59;;;;;;;;;7.25;3.50;;;;;8.80;59.92;101933.94;5007622;28;45453;-58
2022/01/31 01:11:24;;;;;;;;;7.75;3.50;;;;;8.77;59.88;101926.19;5007928;28;46017;-58
2022/01/31 01:13:50;;;;;;;;;9.75;4.25;;;;;8.75;60.02;101932.38;5008056;28;45483;-58
2022/01/31 01:16:15;;;;;;;;;5.50;3.00;;;;;8.73;60.04;101924.53;5009082;28;45604;-58
2022/01/31 01:18:41;;;;;;;;;6.75;3.00;;;;;8.75;60.01;101916.59;5010395;28;45685;-58
2022/01/31 01:21:07;;;;;;;;;2.00;2.00;;;;;8.74;59.87;101904.38;5010396;28;46489;-58
2022/01/31 01:23:33;;;;;;;;;8.75;3.00;;;;;8.76;59.97;101907.81;5010803;28;45627;-58
2022/01/31 01:25:58;;;;;;;;;6.00;4.00;;;;;8.77;60.27;101897.28;5010406;28;45739;-57
2022/01/31 01:28:25;;;;;;;;;8.50;3.25;;;;;8.80;60.46;101885.78;5006901;28;45761;-58
2022/01/31 01:30:51;;;;;;;;;3.00;3.00;;;;;8.80;60.19;101865.63;5008666;28;46045;-57
2022/01/31 01:33:22;;;;;;;;;2.75;1.50;;;;;8.81;60.26;101869.97;5008018;28;45841;-58
2022/01/31 01:35:50;;;;;;;;;4.00;2.00;;;;;8.79;60.33;101852.56;5011021;28;45672;-57
2022/01/31 01:38:18;;;;;;;;;7.75;4.00;;;;;8.76;60.66;101850.00;5010513;28;45446;-58
2022/01/31 01:40:46;;;;;;;;;5.00;3.25;;;;;8.77;60.65;101849.09;5011506;28;46098;-58
2022/01/31 01:43:14;;;;;;;;;3.00;2.00;;;;;8.72;60.98;101833.50;5010259;28;45422;-57
2022/01/31 01:45:40;;;;;;;;;14.25;3.00;;;;;8.71;60.91;101838.81;5011214;28;45492;-58
2022/01/31 01:48:07;;;;;;;;;7.75;2.00;;;;;8.70;60.84;101839.75;5010095;28;45520;-58
2022/01/31 01:50:40;;;;;;;;;3.00;2.00;;;;;8.71;61.09;101836.19;5010132;28;45930;-58
2022/01/31 01:53:07;;;;;;;;;6.00;3.00;;;;;8.73;61.43;101840.47;5007711;28;45574;-58
2022/01/31 01:55:33;;;;;;;;;4.50;3.00;;;;;8.77;61.36;101828.09;5011274;28;45510;-58
2022/01/31 01:57:58;;;;;;;;;6.75;2.75;;;;;8.79;61.34;101840.28;5013125;28;45637;-58
2022/01/31 02:00:43;;;;;;;;;2.00;2.00;;;;;8.79;61.82;101852.56;5010346;28;45522;-58
2022/01/31 02:03:08;;;;;;;;;4.25;4.00;;;;;8.82;61.62;101849.81;5006086;28;45491;-58
2022/01/31 02:05:34;;;;;;;;;2.75;2.25;;;;;8.84;61.68;101835.69;5011346;28;45500;-58
2022/01/31 02:07:59;;;;;;;;;4.25;1.75;;;;;8.92;61.76;101841.56;5009029;28;45374;-58
2022/01/31 02:10:25;;;;;;;;;2.25;1.75;;;;;8.95;62.29;101835.34;5008632;28;46192;-58
2022/01/31 02:12:51;;;;;;;;;5.75;2.00;;;;;8.95;62.43;101816.97;5008599;28;45494;-57
2022/01/31 02:15:18;;;;;;;;;5.00;2.00;;;;;8.95;62.01;101823.06;5009226;28;45460;-57
2022/01/31 02:17:44;;;;;;;;;11.75;3.00;;;;;8.98;62.42;101803.69;5007989;28;45666;-58
2022/01/31 02:20:10;;;;;;;;;2.00;2.00;;;;;9.00;62.54;101795.75;5007280;28;46266;-58
2022/01/31 02:22:36;;;;;;;;;9.00;3.75;;;;;9.00;62.43;101803.63;5006391;28;45961;-57
2022/01/31 02:25:04;;;;;;;;;4.75;2.00;;;;;8.98;62.69;101801.06;5008701;28;45733;-58
2022/01/31 02:27:32;;;;;;;;;3.25;1.00;;;;;9.00;63.01;101801.00;5008113;28;45392;-58
2022/01/31 02:29:58;;;;;;;;;1.00;1.00;;;;;9.01;62.70;101789.63;5005674;28;45586;-58
2022/01/31 02:32:23;;;;;;;;;2.50;1.50;;;;;9.03;63.19;101782.53;5006201;28;45444;-57
2022/01/31 02:34:50;;;;;;;;;11.25;2.00;;;;;9.02;63.09;101763.28;5007058;28;45493;-58
2022/01/31 02:37:16;;;;;;;;;8.00;3.00;;;;;9.04;63.51;101768.47;5007500;28;45616;-57
2022/01/31 02:39:42;;;;;;;;;3.00;3.00;;;;;9.03;63.70;101764.97;5009452;28;46244;-58
2022/01/31 02:42:08;;;;;;;;;6.50;2.75;;;;;9.03;63.68;101780.75;5008010;28;45495;-58
2022/01/31 02:44:33;;;;;;;;;6.75;2.25;;;;;9.06;64.02;101769.25;5010050;28;45405;-58
2022/01/31 02:46:59;;;;;;;;;2.00;1.50;;;;;9.07;63.73;101760.44;5010155;28;45409;-58
2022/01/31 02:49:32;;;;;;;;;5.75;2.00;;;;;9.07;63.82;101745.53;5009029;28;46962;-57
2022/01/31 02:52:01;;;;;;;;;2.75;2.00;;;;;9.08;64.03;101746.41;5010144;28;45522;-58
2022/01/31 02:54:29;;;;;;;;;4.00;0.00;;;;;9.07;64.66;101732.41;5008979;28;45424;-58
2022/01/31 02:56:55;;;;;;;;;2.75;2.00;;;;;9.04;64.46;101737.78;5008026;28;45523;-58
2022/01/31 02:59:20;;;;;;;;;3.00;2.75;;;;;9.05;65.09;101744.75;5008205;28;45927;-58
2022/01/31 03:01:46;;;;;;;;;6.00;2.25;;;;;9.07;65.01;101731.53;5008680;28;45448;-58
2022/01/31 03:04:12;;;;;;;;;1.00;1.00;;;;;9.08;64.85;101712.22;5011351;28;45413;-58
2022/01/31 03:06:41;;;;;;;;;2.75;2.00;;;;;9.07;65.14;101707.88;5009039;28;45463;-58
2022/01/31 03:09:06;;;;;;;;;6.00;2.00;;;;;9.05;65.24;101707.97;5009803;28;45566;-58
2022/01/31 03:11:32;;;;;;;;;7.25;3.00;;;;;9.06;65.35;101696.53;5007873;28;45359;-57
2022/01/31 03:13:57;;;;;;;;;7.00;1.75;;;;;9.05;66.01;101691.31;5007143;28;45580;-57
2022/01/31 03:16:23;;;;;;;;;3.75;1.00;;;;;9.05;66.00;101692.19;5011041;28;45325;-57
2022/01/31 03:18:48;;;;;;;;;3.25;3.25;;;;;9.02;65.91;101684.44;5007964;28;45632;-57
2022/01/31 03:21:14;;;;;;;;;3.00;1.50;;;;;9.00;66.36;101696.75;5011107;28;45391;-57
2022/01/31 03:23:40;;;;;;;;;3.00;1.00;;;;;8.98;66.47;101697.72;5011002;28;45507;-57
2022/01/31 03:26:06;;;;;;;;;2.25;2.00;;;;;8.98;66.49;101701.22;5011973;28;45531;-57
2022/01/31 03:28:31;;;;;;;;;1.50;0.50;;;;;9.00;67.17;101691.50;5014091;28;45629;-57
2022/01/31 03:30:57;;;;;;;;;1.25;1.25;;;;;9.01;66.99;101682.72;5012262;28;45471;-56
2022/01/31 03:33:22;;;;;;;;;4.75;1.00;;;;;9.01;67.40;101679.22;5013047;28;45486;-57
2022/01/31 03:35:48;;;;;;;;;7.75;2.50;;;;;9.03;67.22;101686.13;5010982;28;45665;-57
2022/01/31 03:38:13;;;;;;;;;6.75;1.00;;;;;9.05;68.00;101679.03;5008876;28;46085;-58
2022/01/31 03:40:39;;;;;;;;;1.75;1.75;;;;;9.06;67.94;101678.13;5014137;28;45534;-58
2022/01/31 03:43:04;;;;;;;;;1.50;0.00;;;;;9.07;68.08;101653.56;5014788;28;45550;-58
2022/01/31 03:45:34;;;;;;;;;6.50;2.00;;;;;9.05;68.66;101647.50;5011363;28;45377;-58
2022/01/31 03:48:00;;;;;;;;;3.25;1.75;;;;;9.04;68.78;101660.72;5012231;28;45537;-58
2022/01/31 03:50:27;;;;;;;;;2.25;1.00;;;;;9.04;69.67;101664.19;5011691;28;45734;-58
2022/01/31 03:52:53;;;;;;;;;1.25;1.00;;;;;9.05;69.89;101649.28;5014122;28;45498;-58
2022/01/31 03:55:20;;;;;;;;;1.00;1.00;;;;;9.00;70.38;101628.41;5011323;28;45493;-57
2022/01/31 03:57:45;;;;;;;;;1.75;1.00;;;;;8.94;70.60;101655.81;5012069;28;45453;-58
2022/01/31 04:00:13;;;;;;;;;4.00;1.00;;;;;8.90;70.41;101669.09;5012144;28;45379;-57
2022/01/31 04:02:40;;;;;;;;;9.00;2.00;;;;;8.87;70.92;101669.22;5012883;28;45594;-58
2022/01/31 04:05:07;;;;;;;;;6.00;1.00;;;;;8.85;71.53;101674.56;5011418;28;45848;-57
2022/01/31 04:07:33;;;;;;;;;6.00;1.00;;;;;8.84;71.50;101657.03;5011438;28;45671;-58
2022/01/31 04:09:59;;;;;;;;;3.00;1.50;;;;;8.83;71.83;101655.34;5009769;28;45514;-57
2022/01/31 04:12:24;;;;;;;;;1.00;1.00;;;;;8.82;72.10;101664.13;5008047;28;45782;-57
2022/01/31 04:14:50;;;;;;;;;0.00;0.00;;;;;8.85;72.25;101665.81;5009628;28;45667;-57
2022/01/31 04:17:19;;;;;;;;;0.25;0.00;;;;;8.85;71.81;101671.94;5009247;28;45899;-57
2022/01/31 04:19:45;;;;;;;;;2.75;1.00;;;;;8.84;72.31;101672.81;5010790;28;45381;-57
2022/01/31 04:22:14;;;;;;;;;6.00;1.00;;;;;8.85;72.75;101666.66;5009577;28;45458;-57
2022/01/31 04:24:41;;;;;;;;;5.00;1.00;;;;;8.88;72.40;101670.94;5008705;28;45442;-57
2022/01/31 04:27:08;;;;;;;;;1.00;1.00;;;;;8.90;72.19;101683.09;5007712;28;45413;-58
2022/01/31 04:29:39;;;;;;;;;1.00;1.00;;;;;8.92;72.46;101686.53;5009119;28;45372;-58
2022/01/31 04:32:05;;;;;;;;;3.75;1.00;;;;;8.97;72.64;101685.50;5010129;28;45593;-58
2022/01/31 04:34:31;;;;;;;;;0.00;0.00;;;;;9.01;72.84;101680.09;5010268;28;45515;-58
2022/01/31 04:37:00;;;;;;;;;4.00;0.50;;;;;9.06;72.97;101672.88;5008932;28;46181;-58
2022/01/31 04:39:28;;;;;;;;;2.00;0.50;;;;;9.08;72.64;101688.56;5009816;28;45651;-58
2022/01/31 04:41:53;;;;;;;;;0.50;0.00;;;;;9.08;72.60;101688.56;5009340;28;45725;-58
2022/01/31 04:44:19;;;;;;;;;1.00;1.00;;;;;9.09;72.79;101693.78;5010525;28;45435;-58
2022/01/31 04:46:49;;;;;;;;;1.00;0.00;;;;;9.13;73.14;101679.59;5011057;28;46532;-58
2022/01/31 04:49:18;;;;;;;;;2.75;1.00;;;;;9.14;72.85;101670.81;5011754;28;45846;-58
2022/01/31 04:51:43;;;;;;;;;1.25;1.25;;;;;9.17;73.03;101668.06;5011455;28;45474;-58
2022/01/31 04:54:09;;;;;;;;;2.00;0.00;;;;;9.18;72.68;101659.28;5009943;28;45526;-58
2022/01/31 04:56:36;;;;;;;;;1.75;1.00;;;;;9.20;72.90;101667.94;5011901;28;46080;-58
2022/01/31 04:59:01;;;;;;;;;1.00;1.00;;;;;9.26;73.00;101676.53;5011212;28;45467;-58
2022/01/31 05:01:27;;;;;;;;;1.00;1.00;;;;;9.31;73.20;101670.16;5011630;28;45420;-58
2022/01/31 05:03:53;;;;;;;;;1.25;0.00;;;;;9.34;72.65;101680.56;5011381;28;45399;-58
2022/01/31 05:06:26;;;;;;;;;1.00;1.00;;;;;9.36;73.13;101693.66;5010677;28;45999;-58
2022/01/31 05:08:51;;;;;;;;;0.50;0.50;;;;;9.37;72.87;101696.22;5008331;28;45325;-58
2022/01/31 05:11:17;;;;;;;;;2.00;0.75;;;;;9.40;72.55;101701.38;5009517;28;45349;-58
2022/01/31 05:13:44;;;;;;;;;4.25;1.00;;;;;9.43;72.70;101710.91;5011430;28;45565;-58
2022/01/31 05:16:10;;;;;;;;;2.50;0.00;;;;;9.45;72.66;101714.31;5010081;28;45579;-58
2022/01/31 05:18:35;;;;;;;;;2.25;2.00;;;;;9.43;71.86;101695.97;5009439;28;45377;-58
2022/01/31 05:21:01;;;;;;;;;2.00;1.00;;;;;9.41;71.68;101686.44;5009712;28;45742;-58
2022/01/31 05:23:26;;;;;;;;;0.00;0.00;;;;;9.39;71.32;101694.38;5006571;28;45443;-59
2022/01/31 05:25:52;;;;;;;;;0.00;0.00;;;;;9.37;70.59;101698.84;5010513;28;46100;-56
2022/01/31 05:28:17;;;;;;;;;3.00;0.00;;;;;9.37;69.85;101701.47;5010533;28;45515;-57
2022/01/31 05:30:43;;;;;;;;;1.25;1.00;;;;;9.37;69.03;101695.34;5010078;28;45733;-57
2022/01/31 05:33:08;;;;;;;;;3.25;1.00;;;;;9.36;68.55;101710.28;5007736;28;45517;-57
2022/01/31 05:35:34;;;;;;;;;4.00;0.25;;;;;9.33;68.13;101713.03;5008964;28;45888;-57
2022/01/31 05:37:59;;;;;;;;;0.00;0.00;;;;;9.30;66.91;101704.38;5006971;28;45458;-57
2022/01/31 05:40:25;;;;;;;;;0.75;0.75;;;;;9.27;66.54;101715.03;5009707;28;45800;-57
2022/01/31 05:42:51;;;;;;;;;1.50;0.00;;;;;9.22;66.20;101713.44;5010560;28;45461;-57
2022/01/31 05:45:16;;;;;;;;;3.00;0.75;;;;;9.20;66.29;101707.38;5009712;28;45672;-57
2022/01/31 05:47:42;;;;;;;;;3.00;0.00;;;;;9.18;66.45;101706.59;5011999;28;45659;-57
2022/01/31 05:50:08;;;;;;;;;1.00;0.75;;;;;9.16;66.66;101715.44;5010472;28;45340;-57
2022/01/31 05:52:34;;;;;;;;;3.00;1.00;;;;;9.14;66.04;101719.91;5009585;28;45362;-57
2022/01/31 05:55:00;;;;;;;;;1.00;0.00;;;;;9.10;66.41;101719.16;5009216;28;46009;-57
2022/01/31 05:57:25;;;;;;;;;1.25;1.25;;;;;9.08;66.22;101714.84;5010161;28;45479;-58
2022/01/31 05:59:51;;;;;;;;;4.25;1.75;;;;;9.07;66.14;101705.25;5010388;28;45380;-57
2022/01/31 06:02:17;;;;;;;;;1.75;1.00;;;;;9.02;65.96;101702.81;5010618;28;45604;-57
2022/01/31 06:04:43;;;;;;;;;1.00;1.00;;;;;9.01;65.74;101701.13;5009776;28;45523;-57
2022/01/31 06:07:08;;;;;;;;;3.50;2.00;;;;;9.01;65.87;101706.38;5007586;28;45380;-57
2022/01/31 06:09:34;;;;;;;;;4.25;0.75;;;;;8.99;66.13;101734.44;5008443;28;45487;-57
2022/01/31 06:12:02;;;;;;;;;1.00;0.50;;;;;8.95;65.48;101723.22;5006380;28;45357;-57
2022/01/31 06:14:28;;;;;;;;;2.75;1.00;;;;;8.93;65.59;101724.19;5007284;28;45379;-57
2022/01/31 06:16:54;;;;;;;;;5.00;1.00;;;;;8.92;65.54;101719.81;5008476;28;45595;-58
2022/01/31 06:19:19;;;;;;;;;1.25;0.75;;;;;8.89;65.18;101733.94;5008291;28;45423;-57
2022/01/31 06:21:44;;;;;;;;;2.75;1.00;;;;;8.87;65.18;101748.06;5010480;28;45449;-57
2022/01/31 06:24:10;;;;;;;;;2.25;1.00;;;;;8.83;65.17;101733.28;5009227;28;45907;-57
2022/01/31 06:26:37;;;;;;;;;1.50;0.00;;;;;8.82;64.98;101721.06;5009207;28;45588;-57
2022/01/31 06:29:03;;;;;;;;;0.00;0.00;;;;;8.82;65.03;101716.69;5009372;28;45562;-58
2022/01/31 06:31:30;;;;;;;;;2.00;1.00;;;;;8.82;64.93;101734.22;5005960;28;45534;-57
2022/01/31 06:33:56;;;;;;;;;2.25;1.00;;;;;8.79;65.07;101732.56;5020811;28;45634;-57
2022/01/31 06:36:23;;;;;;;;;3.00;1.00;;;;;8.76;64.78;101729.16;5020574;28;45199;-58
2022/01/31 06:38:49;;;;;;;;;5.00;0.50;;;;;8.75;64.71;101740.59;5020896;28;45430;-57
2022/01/31 06:41:17;;;;;;;;;5.00;1.00;;;;;8.73;65.25;101731.91;5005013;28;45284;-57
2022/01/31 06:43:44;;;;;;;;;3.00;1.00;;;;;8.71;64.89;101733.75;5000759;28;45270;-60
2022/01/31 06:46:09;;;;;;;;;3.00;0.75;;;;;8.70;64.95;101742.56;5000599;28;45389;-63
2022/01/31 06:48:35;;;;;;;;;0.25;0.25;;;;;8.68;64.90;101746.06;4999594;28;45309;-60
2022/01/31 06:51:00;;;;;;;;;1.50;1.00;;;;;8.66;64.71;101755.78;5000325;28;45490;-60
2022/01/31 06:53:28;;;;;;;;;1.75;1.00;;;;;8.63;64.65;101750.63;5000403;28;45372;-59
2022/01/31 06:55:57;;;;;;;;;4.50;1.00;;;;;8.64;64.96;101746.25;5010498;28;45827;-60
2022/01/31 06:58:24;;;;;;;;;6.50;2.25;;;;;8.63;64.87;101745.38;5019255;28;45420;-60
2022/01/31 07:00:50;;;;;;;;;2.50;0.50;;;;;8.61;64.47;101747.22;5009598;28;45589;-61
2022/01/31 07:03:16;;;;;;;;;3.00;1.00;;;;;8.57;64.35;101753.47;5010907;28;46233;-60
2022/01/31 07:05:43;;;;;;;;;1.75;1.00;;;;;8.59;64.15;101763.91;5007795;28;45700;-60
2022/01/31 07:08:09;;;;;;;;;1.75;1.00;;;;;8.55;64.56;101762.31;5007921;28;45570;-60
2022/01/31 07:10:37;;;;;;;;;1.00;1.00;;;;;8.54;64.25;101756.22;5004547;28;45588;-60
2022/01/31 07:13:11;;;;;;;;;3.50;1.75;;;;;8.53;64.26;101762.38;5005573;28;46318;-62
2022/01/31 07:15:37;;;;;;;;;3.00;0.00;;;;;8.49;64.11;101755.50;5005855;28;45538;-61
2022/01/31 07:18:02;;;;;;;;;2.25;0.00;;;;;8.50;64.20;101772.13;5008029;28;45542;-61
2022/01/31 07:20:38;;;;;;;;;2.50;1.00;;;;;8.49;64.31;101773.03;5007444;28;45416;-61
2022/01/31 07:23:10;;;;;;;;;1.00;1.00;;;;;8.49;64.23;101778.28;5009747;28;45817;-61
2022/01/31 07:25:35;;;;;;;;;0.50;0.25;;;;;8.49;64.36;101784.38;5008626;28;45725;-61
2022/01/31 07:28:03;;;;;;;;;1.00;1.00;;;;;8.47;64.13;101793.25;5008715;28;45399;-61
2022/01/31 07:30:29;;;;;;;;;3.00;2.00;;;;;8.45;64.32;101776.66;5007047;28;45640;-61
2022/01/31 07:32:55;;;;;;;;;3.00;1.50;;;;;8.44;63.89;101773.16;5005526;28;45662;-61
2022/01/31 07:35:21;;;;;;;;;8.25;1.75;;;;;8.47;63.96;101788.00;5006213;28;45445;-61
2022/01/31 07:37:46;;;;;;;;;3.25;1.00;;;;;8.52;64.25;101793.91;5009188;28;45543;-61
2022/01/31 07:40:12;;;;;;;;;1.75;1.00;;;;;8.57;64.22;101782.34;5009716;28;45504;-61
2022/01/31 07:42:38;;;;;;;;;4.00;1.00;;;;;8.66;64.19;101794.31;5007070;28;46292;-61
2022/01/31 07:45:04;;;;;;;;;3.00;2.00;;;;;8.70;64.09;101792.47;5008985;28;45539;-61
2022/01/31 07:47:29;;;;;;;;;2.75;1.00;;;;;8.74;63.65;101807.19;5009045;28;45491;-61
2022/01/31 07:49:55;;;;;;;;;5.75;1.00;;;;;8.81;63.78;101813.94;5008616;28;45514;-60
2022/01/31 07:52:21;;;;;;;;;1.00;1.00;;;;;8.82;63.41;101797.28;5006867;28;45503;-61
2022/01/31 07:54:46;;;;;;;;;2.50;1.25;;;;;8.85;63.25;101803.28;5004491;28;45462;-61
2022/01/31 07:57:12;;;;;;;;;5.50;0.50;;;;;8.91;63.70;101818.81;5006168;28;45441;-61
2022/01/31 07:59:38;;;;;;;;;3.50;1.00;;;;;8.91;63.11;101808.31;5012362;28;45411;-62
2022/01/31 08:02:03;;;;;;;;;3.00;0.00;;;;;8.91;63.06;101821.44;5013628;28;47170;-61
2022/01/31 08:04:29;;;;;;;;;1.00;1.00;;;;;8.92;63.35;101827.56;5012933;28;45429;-61
2022/01/31 08:06:54;;;;;;;;;2.50;1.00;;;;;8.97;63.23;101837.91;5013862;28;45309;-62
2022/01/31 08:09:20;;;;;;;;;3.00;2.50;;;;;9.00;62.92;101838.66;5009702;28;45257;-61
2022/01/31 08:11:46;;;;;;;;;5.25;5.25;;;;;9.02;63.00;101842.13;5013451;28;45403;-62
2022/01/31 08:14:13;;;;;;;;;6.00;2.75;;;;;9.06;63.10;101838.44;5010657;28;45363;-62
2022/01/31 08:16:39;;;;;;;;;3.00;1.00;;;;;9.13;63.11;101849.59;5011229;28;45257;-62
2022/01/31 08:19:08;;;;;;;;;4.50;2.50;;;;;9.19;62.57;101852.88;5010859;28;45248;-62
2022/01/31 08:21:34;;;;;;;;;6.00;1.00;;;;;9.25;62.64;101849.19;5012306;28;45466;-62
2022/01/31 08:24:00;;;;;;;;;1.00;1.00;;;;;9.30;62.33;101846.38;5012074;28;45733;-62
2022/01/31 08:26:26;;;;;;;;;1.50;1.00;;;;;9.29;62.44;101852.56;5011009;28;45443;-62
2022/01/31 08:28:58;;;;;;;;;2.00;1.00;;;;;9.30;62.47;101826.19;5009698;28;45754;-62
2022/01/31 08:31:36;;;;;;;;;3.75;1.00;;;;;9.35;62.17;101837.41;5012710;28;46109;-61
2022/01/31 08:34:18;;;;;;;;;1.75;0.50;;;;;9.37;62.39;101832.09;5013155;28;45449;-62
2022/01/31 08:36:44;;;;;;;;;1.50;1.50;;;;;9.37;61.97;101845.25;5012230;28;45273;-62
2022/01/31 08:39:15;;;;;;;;;3.75;2.00;;;;;9.38;62.05;101839.06;5013417;28;45356;-61
2022/01/31 08:41:44;;;;;;;;;7.50;2.50;;;;;9.41;62.51;101837.19;5010705;28;45553;-61
2022/01/31 08:44:11;;;;;;;;;10.25;3.00;;;;;9.43;62.54;101831.88;5011731;28;45257;-61
2022/01/31 08:46:40;;;;;;;;;3.00;2.00;;;;;9.44;62.17;101830.94;5011533;28;45174;-62
2022/01/31 08:49:10;;;;;;;;;1.75;1.00;;;;;9.44;62.00;101850.22;5010546;28;45223;-61
2022/01/31 08:51:36;;;;;;;;;1.00;1.00;;;;;9.46;61.87;101865.94;5008845;28;45471;-61
2022/01/31 08:54:06;;;;;;;;;9.50;0.75;;;;;9.43;61.59;101858.16;5008242;28;45251;-61
2022/01/31 08:56:35;;;;;;;;;6.75;1.75;;;;;9.41;61.77;101876.63;5002756;28;45282;-61
2022/01/31 08:59:04;;;;;;;;;2.00;2.00;;;;;9.41;61.60;101867.91;5002545;28;45346;-62
2022/01/31 09:01:29;;;;;;;;;3.00;1.00;;;;;9.46;61.51;101868.56;5002355;28;45432;-62
2022/01/31 09:04:01;;;;;;;;;2.00;1.00;;;;;9.51;61.61;101864.88;5002636;28;45224;-62
2022/01/31 09:06:32;;;;;;;;;6.50;1.50;;;;;9.60;61.44;101865.44;5002830;28;45311;-62
2022/01/31 09:08:59;;;;;;;;;2.25;2.00;;;;;9.72;60.91;101842.16;5002423;28;45340;-61
2022/01/31 09:11:25;;;;;;;;;2.25;1.25;;;;;9.77;60.79;101844.59;5001849;28;46286;-61
2022/01/31 09:13:51;;;;;;;;;4.00;0.00;;;;;9.74;60.56;101837.69;5001825;28;45347;-61
2022/01/31 09:16:17;;;;;;;;;6.25;5.75;;;;;9.75;61.33;101830.66;5002483;28;45362;-61
2022/01/31 09:18:43;;;;;;;;;3.00;1.00;;;;;9.76;60.75;101827.97;5002648;28;45235;-61
2022/01/31 09:21:08;;;;;;;;;5.75;2.75;;;;;9.79;60.80;101819.97;5002402;28;46066;-60
2022/01/31 09:23:34;;;;;;;;;3.00;3.00;;;;;9.80;60.22;101823.47;5002397;28;45225;-61
2022/01/31 09:25:59;;;;;;;;;3.75;2.50;;;;;9.83;60.25;101833.00;5002500;28;45357;-61
2022/01/31 09:28:25;;;;;;;;;2.00;2.00;;;;;9.78;60.09;101831.38;5002066;28;45177;-61
2022/01/31 09:30:52;;;;;;;;;8.00;2.50;;;;;9.70;59.91;101830.81;5002242;28;45348;-61
2022/01/31 09:33:18;;;;;;;;;6.00;2.00;;;;;9.66;60.14;101828.38;5002174;28;45324;-62
2022/01/31 09:35:44;;;;;;;;;5.50;2.00;;;;;9.69;60.22;101844.91;5002579;28;45471;-62
2022/01/31 09:38:16;;;;;;;;;3.50;1.00;;;;;9.82;59.27;101826.03;5002281;28;45354;-61
2022/01/31 09:40:42;;;;;;;;;6.50;2.00;;;;;9.96;59.38;101842.16;5007288;28;46377;-62
2022/01/31 09:48:38;;;;;;;;;8.00;2.00;;;;;10.12;59.25;101866.94;5002060;28;45306;-62
2022/01/31 09:51:09;;;;;;;;;2.25;1.25;;;;;10.14;58.52;101857.22;5001937;28;45281;-62
2022/01/31 09:53:44;;;;;;;;;8.50;3.00;;;;;10.10;58.22;101849.47;5002226;28;45260;-62
2022/01/31 09:56:12;;;;;;;;;5.00;3.00;;;;;10.05;58.80;101854.94;5012834;28;45332;-61
2022/01/31 09:58:39;;;;;;;;;2.00;2.00;;;;;10.01;58.65;101856.81;5020147;28;45419;-61
2022/01/31 10:01:19;;;;;;;;;3.00;1.00;;;;;9.96;58.06;101856.16;5021582;28;46204;-61
2022/01/31 10:03:59;;;;;;;;;6.25;3.50;;;;;9.92;58.21;101861.59;5021740;28;45191;-60
2022/01/31 10:06:35;;;;;;;;;3.50;2.00;;;;;9.85;58.34;101868.84;5020193;28;45467;-61
2022/01/31 10:09:03;;;;;;;;;3.50;2.25;;;;;9.86;58.51;101885.50;5001990;28;45270;-61
2022/01/31 10:11:37;;;;;;;;;4.50;1.00;;;;;9.90;58.55;101901.13;5001335;28;45713;-61
2022/01/31 10:16:58;;;;;;;;;1.75;1.75;;;;;10.07;57.43;101889.94;5009829;28;45367;-61
2022/01/31 10:19:23;;;;;;;;;2.00;1.00;;;;;10.16;57.83;101881.69;5021175;28;45173;-61
2022/01/31 10:21:58;;;;;;;;;3.25;1.00;;;;;10.23;56.66;101898.16;5021312;28;46207;-60
2022/01/31 10:24:26;;;;;;;;;7.50;1.25;;;;;10.26;57.17;101893.59;5020753;28;45241;-61
2022/01/31 10:26:52;;;;;;;;;3.00;2.00;;;;;10.30;56.79;101905.75;5021433;28;45308;-61
2022/01/31 10:29:21;;;;;;;;;3.00;1.25;;;;;10.40;56.60;101910.66;5021383;28;45276;-60
2022/01/31 10:31:55;;;;;;;;;5.00;1.75;;;;;10.48;56.39;101898.03;5021315;28;46178;-60
2022/01/31 10:34:23;;;;;;;;;1.00;0.50;;;;;10.58;56.20;101896.72;5021205;28;45521;-61
2022/01/31 10:36:49;;;;;;;;;2.00;1.00;;;;;10.73;55.52;101901.38;5021357;28;45270;-61
2022/01/31 10:43:24;;;;;;;;;6.75;2.00;;;;;10.77;55.45;101904.75;5016377;28;45419;-61
2022/01/31 10:51:55;;;;;;;;;4.25;2.00;;;;;10.52;55.45;101910.16;5008638;28;45227;-61
2022/01/31 10:56:52;;;;;;;;;1.25;0.25;;;;;10.50;54.95;101926.00;5016930;28;45325;-61
2022/01/31 10:59:21;;;;;;;;;3.75;1.00;;;;;10.57;54.66;101927.47;5020964;28;45222;-61
2022/01/31 11:01:51;;;;;;;;;2.75;1.00;;;;;10.67;54.41;101912.19;5020799;28;45544;-61
2022/01/31 11:04:17;;;;;;;;;1.50;0.75;;;;;10.80;53.98;101909.88;5020595;28;45184;-61
2022/01/31 11:06:45;;;;;;;;;2.50;1.00;;;;;10.82;53.24;101901.00;5012551;28;45495;-61
2022/01/31 11:09:16;;;;;;;;;0.00;0.00;;;;;10.80;52.39;101908.09;5000466;28;45447;-60
2022/01/31 11:11:50;;;;;;;;;0.00;0.00;;;;;10.80;53.03;101910.72;4999779;28;45457;-61
2022/01/31 11:14:16;;;;;;;;;2.50;1.00;;;;;10.85;52.92;101929.88;5000772;28;45329;-60
2022/01/31 11:16:44;;;;;;;;;3.25;1.00;;;;;10.87;53.16;101919.25;5000825;28;45305;-60
2022/01/31 11:19:12;;;;;;;;;3.25;1.00;;;;;10.87;52.79;101917.47;5000769;28;45408;-60
2022/01/31 11:21:45;;;;;;;;;2.00;1.00;;;;;10.93;51.50;101923.41;5007568;28;45328;-60
2022/01/31 11:24:19;;;;;;;;;2.50;0.00;;;;;10.97;51.81;101917.94;5020331;28;46466;-61
2022/01/31 11:26:50;;;;;;;;;4.00;1.00;;;;;11.01;51.86;101914.25;5020021;28;45312;-60
2022/01/31 11:29:17;;;;;;;;;0.75;0.00;;;;;11.02;51.56;101915.13;5018929;28;45384;-61
2022/01/31 11:31:44;;;;;;;;;1.75;0.75;;;;;10.99;51.99;101920.53;5020241;28;45268;-61
2022/01/31 11:34:09;;;;;;;;;1.50;1.00;;;;;10.90;52.14;101906.81;5020009;28;45220;-62
2022/01/31 11:36:38;;;;;;;;;2.50;1.00;;;;;10.75;53.03;101917.13;5023097;28;45357;-62
2022/01/31 11:39:09;;;;;;;;;0.00;0.00;;;;;10.62;54.08;101936.06;5020724;28;45435;-62
2022/01/31 11:41:38;;;;;;;;;1.75;1.00;;;;;10.53;56.94;101956.66;5004087;28;45239;-61
2022/01/31 11:44:44;;;;;;;;;3.25;1.00;;;;;10.04;61.75;101933.06;5003830;28;45399;-62
2022/01/31 11:47:10;;;;;;;;;0.75;0.75;;;;;9.86;60.97;101924.97;5009124;28;45349;-62
2022/01/31 11:49:43;;;;;;;;;4.75;3.00;;;;;9.72;60.98;101925.50;5003892;28;45424;-62
2022/01/31 11:52:09;;;;;;;;;2.00;1.25;;;;;9.62;61.58;101935.47;5003906;28;45355;-62
2022/01/31 11:54:49;;;;;;;;;2.00;1.25;;;;;9.51;60.96;101972.69;5003855;28;46079;-61